Time;durP1;ratioP1;P1;durP2;ratioP2;P2;SDS_P1;SDS_P2;PMS_P1;PMS_P2;Temp;Humidity;BMP_temperature;BMP_pressure;BME280_temperature;BME280_humidity;BME280_pressure;Samples;Min_cycle;Max_cycle;Signal;HPM_P1;HPM_P2
2023/03/17 17:58:18;;;;;;;;;;;;;;;14.56;41.31;97514.34;6207941;22;20034;-64
2023/03/17 18:00:43;;;;;;;;;;;;;;;14.47;41.48;97501.00;6211017;23;20594;-64
2023/03/17 18:03:08;;;;;;;;;;;;;;;14.43;41.73;97510.19;6214906;23;19915;-64
2023/03/17 18:05:34;;;;;;;;;;;;;;;14.37;41.84;97504.66;6188640;23;20291;-64
2023/03/17 18:08:01;;;;;;;;;;;;;;;14.29;41.71;97513.31;6189016;23;19980;-64
2023/03/17 18:10:26;;;;;;;;;;;;;;;14.23;41.79;97505.97;6213876;23;19908;-64
2023/03/17 18:12:52;;;;;;;;;;;;;;;14.18;42.13;97509.06;6214915;23;19915;-64
2023/03/17 18:15:17;;;;;;;;;;;;;;;14.11;42.00;97512.38;6214197;23;19958;-64
2023/03/17 18:17:42;;;;;;;;;;;;;;;14.06;42.17;97512.81;6187322;23;19927;-64
2023/03/17 18:20:11;;;;;;;;;;;;;;;13.99;42.36;97517.00;6213343;23;20331;-64
2023/03/17 18:22:37;;;;;;;;;;;;;;;13.92;42.47;97516.75;6188268;23;19933;-64
2023/03/17 18:25:02;;;;;;;;;;;;;;;13.84;42.85;97514.00;6214447;23;19944;-64
2023/03/17 18:27:27;;;;;;;;;;;;;;;13.81;42.85;97514.28;6214523;23;20346;-64
2023/03/17 18:29:53;;;;;;;;;;;;;;;13.75;43.25;97514.84;6185993;23;19916;-65
2023/03/17 18:32:19;;;;;;;;;;;;;;;13.68;43.13;97509.31;6162955;23;19934;-64
2023/03/17 18:34:44;;;;;;;;;;;;;;;13.64;43.76;97515.03;6187426;23;20298;-64
2023/03/17 18:37:11;;;;;;;;;;;;;;;13.58;43.58;97508.50;6214866;23;20495;-64
2023/03/17 18:39:36;;;;;;;;;;;;;;;13.50;43.95;97505.75;6187164;23;20280;-64
2023/03/17 18:42:01;;;;;;;;;;;;;;;13.43;44.22;97513.38;6187787;23;19908;-64
2023/03/17 18:44:27;;;;;;;;;;;;;;;13.35;44.85;97510.63;6187484;23;19915;-64
2023/03/17 18:46:53;;;;;;;;;;;;;;;13.22;44.38;97502.13;6187755;23;19914;-64
2023/03/17 18:49:18;;;;;;;;;;;;;;;13.25;45.07;97507.16;6186816;23;19978;-64
2023/03/17 18:51:43;;;;;;;;;;;;;;;13.22;45.22;97510.03;6213602;23;19931;-64
2023/03/17 18:54:08;;;;;;;;;;;;;;;13.16;45.51;97515.84;6213653;23;19962;-64
2023/03/17 18:56:34;;;;;;;;;;;;;;;13.07;45.38;97513.06;6214337;23;19908;-64
2023/03/17 18:59:00;;;;;;;;;;;;;;;13.02;45.65;97523.16;6187009;23;19986;-64
2023/03/17 19:01:25;;;;;;;;;;;;;;;12.96;45.39;97523.72;6213789;23;19908;-64
2023/03/17 19:03:51;;;;;;;;;;;;;;;12.90;45.30;97524.25;6214199;23;19958;-64
2023/03/17 19:06:17;;;;;;;;;;;;;;;12.87;45.52;97526.31;6214208;23;19915;-64
2023/03/17 19:08:42;;;;;;;;;;;;;;;12.81;45.43;97527.72;6213718;23;19908;-64
2023/03/17 19:11:08;;;;;;;;;;;;;;;12.74;46.16;97523.97;6186817;23;19919;-64
2023/03/17 19:13:33;;;;;;;;;;;;;;;12.65;46.59;97520.31;6187047;23;19991;-64
2023/03/17 19:15:58;;;;;;;;;;;;;;;12.61;46.82;97533.91;6214142;23;19915;-64
2023/03/17 19:18:24;;;;;;;;;;;;;;;12.54;46.43;97530.97;6186689;23;19915;-64
2023/03/17 19:20:49;;;;;;;;;;;;;;;12.46;46.37;97536.06;6213679;23;20221;-64
2023/03/17 19:23:14;;;;;;;;;;;;;;;12.37;46.65;97527.16;6186775;23;20401;-64
2023/03/17 19:25:40;;;;;;;;;;;;;;;12.30;47.74;97524.22;6214056;23;20043;-64
2023/03/17 19:28:05;;;;;;;;;;;;;;;12.28;47.08;97539.28;6211990;23;19908;-64
2023/03/17 19:30:31;;;;;;;;;;;;;;;12.21;47.71;97546.06;6213363;23;20290;-64
2023/03/17 19:32:56;;;;;;;;;;;;;;;12.10;47.87;97536.44;6213698;23;19986;-64
2023/03/17 19:35:21;;;;;;;;;;;;;;;12.00;48.08;97535.56;6213834;23;19938;-64
2023/03/17 19:37:46;;;;;;;;;;;;;;;11.96;48.40;97544.69;6213631;23;19908;-64
2023/03/17 19:40:12;;;;;;;;;;;;;;;11.92;48.33;97551.16;6213349;23;19947;-64
2023/03/17 19:42:37;;;;;;;;;;;;;;;11.83;48.71;97552.72;6213696;23;19915;-64
2023/03/17 19:45:03;;;;;;;;;;;;;;;11.76;48.96;97548.94;6213774;23;19907;-64
2023/03/17 19:47:28;;;;;;;;;;;;;;;11.72;49.17;97551.97;6213599;23;19914;-64
2023/03/17 19:49:54;;;;;;;;;;;;;;;11.64;49.73;97561.31;6213539;23;19954;-64
2023/03/17 19:52:19;;;;;;;;;;;;;;;11.61;50.33;97551.06;6213958;23;19908;-64
2023/03/17 19:54:44;;;;;;;;;;;;;;;11.54;50.65;97549.91;6186976;23;20351;-63
2023/03/17 19:57:13;;;;;;;;;;;;;;;11.47;51.12;97558.44;6213500;23;20353;-64
2023/03/17 19:59:39;;;;;;;;;;;;;;;11.41;51.22;97551.88;6186640;23;19927;-65
2023/03/17 20:02:05;;;;;;;;;;;;;;;11.35;51.11;97560.25;6213836;23;20258;-64
2023/03/17 20:04:30;;;;;;;;;;;;;;;11.30;51.37;97559.81;6185260;23;20346;-64
2023/03/17 20:06:56;;;;;;;;;;;;;;;11.22;51.52;97559.59;6213588;23;19908;-64
2023/03/17 20:09:23;;;;;;;;;;;;;;;11.17;52.18;97558.19;6212009;23;19908;-64
2023/03/17 20:11:48;;;;;;;;;;;;;;;11.13;52.46;97553.31;6187537;23;19912;-64
2023/03/17 20:14:14;;;;;;;;;;;;;;;11.04;52.22;97557.50;6187313;23;19930;-63
2023/03/17 20:16:41;;;;;;;;;;;;;;;11.03;51.87;97555.84;6186645;23;19912;-64
2023/03/17 20:19:06;;;;;;;;;;;;;;;10.98;51.85;97558.03;6186840;23;20346;-66
2023/03/17 20:21:31;;;;;;;;;;;;;;;10.94;52.44;97556.56;6213869;23;19935;-63
2023/03/17 20:23:57;;;;;;;;;;;;;;;10.91;52.64;97552.44;6213430;23;20243;-64
2023/03/17 20:26:22;;;;;;;;;;;;;;;10.87;52.63;97553.63;6187203;23;20251;-63
2023/03/17 20:28:47;;;;;;;;;;;;;;;10.84;52.87;97551.25;6213009;23;19912;-66
2023/03/17 20:31:12;;;;;;;;;;;;;;;10.82;53.51;97547.06;6213376;23;19908;-66
2023/03/17 20:33:37;;;;;;;;;;;;;;;10.80;53.50;97544.56;6213524;23;19939;-66
2023/03/17 20:36:03;;;;;;;;;;;;;;;10.78;54.08;97546.50;6213750;23;19907;-66
2023/03/17 20:38:31;;;;;;;;;;;;;;;10.76;53.23;97544.94;6186884;23;19919;-65
2023/03/17 20:41:06;;;;;;;;;;;;;;;10.75;53.55;97545.91;6187899;23;19912;-65
2023/03/17 20:43:34;;;;;;;;;;;;;;;10.68;54.12;97543.75;6187141;23;19908;-64
2023/03/17 20:46:00;;;;;;;;;;;;;;;10.64;53.12;97549.38;6187290;23;19958;-63
2023/03/17 20:48:25;;;;;;;;;;;;;;;10.58;53.87;97550.69;6213010;23;19911;-65
2023/03/17 20:50:50;;;;;;;;;;;;;;;10.57;54.40;97553.44;6213112;23;19994;-66
2023/03/17 20:53:16;;;;;;;;;;;;;;;10.52;54.66;97543.28;6213462;23;19935;-66
2023/03/17 20:55:41;;;;;;;;;;;;;;;10.48;55.43;97543.66;6213664;23;19911;-66
2023/03/17 20:58:07;;;;;;;;;;;;;;;10.44;54.74;97549.16;6212535;23;19934;-66
2023/03/17 21:00:32;;;;;;;;;;;;;;;10.40;55.76;97546.91;6187066;23;19914;-66
2023/03/17 21:02:59;;;;;;;;;;;;;;;10.32;53.94;97554.50;6213734;23;20303;-65
2023/03/17 21:05:24;;;;;;;;;;;;;;;10.28;53.93;97553.09;6186188;23;19913;-65
2023/03/17 21:07:50;;;;;;;;;;;;;;;10.22;54.02;97549.97;6188362;23;19908;-66
2023/03/17 21:10:15;;;;;;;;;;;;;;;10.19;54.07;97554.63;6187771;23;19931;-66
2023/03/17 21:12:41;;;;;;;;;;;;;;;10.15;53.96;97551.41;6188637;23;20385;-67
2023/03/17 21:15:08;;;;;;;;;;;;;;;10.07;54.47;97551.13;6188471;23;19908;-66
2023/03/17 21:17:33;;;;;;;;;;;;;;;10.03;54.76;97556.75;6188875;23;19908;-66
2023/03/17 21:19:59;;;;;;;;;;;;;;;9.96;54.57;97553.75;6214731;23;19912;-65
2023/03/17 21:22:24;;;;;;;;;;;;;;;9.94;55.28;97556.50;6214895;23;19943;-66
2023/03/17 21:24:50;;;;;;;;;;;;;;;9.89;55.48;97548.13;6188125;23;19907;-66
2023/03/17 21:27:16;;;;;;;;;;;;;;;9.85;55.55;97545.88;6188096;23;20247;-66
2023/03/17 21:29:41;;;;;;;;;;;;;;;9.79;55.65;97547.16;6187894;23;19908;-66
2023/03/17 21:32:07;;;;;;;;;;;;;;;9.74;55.76;97550.16;6214045;23;19908;-65
2023/03/17 21:34:32;;;;;;;;;;;;;;;9.71;55.57;97565.25;6215098;23;19908;-65
2023/03/17 21:36:58;;;;;;;;;;;;;;;9.67;55.78;97558.56;6188732;23;19915;-65
2023/03/17 21:39:23;;;;;;;;;;;;;;;9.64;56.63;97569.28;6214809;23;20014;-65
2023/03/17 21:41:49;;;;;;;;;;;;;;;9.60;56.90;97566.06;6187951;23;19936;-65
2023/03/17 21:44:16;;;;;;;;;;;;;;;9.56;56.85;97564.59;6187845;23;19908;-65
2023/03/17 21:46:41;;;;;;;;;;;;;;;9.52;57.31;97566.63;6188570;23;19908;-65
2023/03/17 21:49:07;;;;;;;;;;;;;;;9.50;57.49;97560.69;6188485;23;20246;-65
2023/03/17 21:51:34;;;;;;;;;;;;;;;9.47;57.71;97557.47;6213685;23;20381;-65
2023/03/17 21:53:59;;;;;;;;;;;;;;;9.42;57.30;97552.53;6213616;23;20263;-65
2023/03/17 21:56:25;;;;;;;;;;;;;;;9.37;57.75;97554.69;6187749;23;20243;-65
2023/03/17 21:58:50;;;;;;;;;;;;;;;9.33;57.34;97555.03;6214525;23;19912;-65
2023/03/17 22:01:16;;;;;;;;;;;;;;;9.24;57.42;97556.53;6213643;23;19915;-65
2023/03/17 22:03:41;;;;;;;;;;;;;;;9.20;57.11;97549.84;6187438;23;19908;-65
2023/03/17 22:06:07;;;;;;;;;;;;;;;9.12;57.16;97563.50;6214306;23;19908;-65
2023/03/17 22:08:33;;;;;;;;;;;;;;;9.07;56.94;97567.38;6187439;23;19911;-66
2023/03/17 22:10:58;;;;;;;;;;;;;;;8.99;57.90;97573.19;6187626;23;19991;-65
2023/03/17 22:13:24;;;;;;;;;;;;;;;8.97;58.07;97564.59;6214107;23;19912;-65
2023/03/17 22:15:49;;;;;;;;;;;;;;;8.90;58.42;97577.28;6214131;23;20346;-65
2023/03/17 22:18:14;;;;;;;;;;;;;;;8.89;58.89;97578.22;6214479;23;19915;-65
2023/03/17 22:20:40;;;;;;;;;;;;;;;8.87;59.19;97574.03;6214419;23;19912;-65
2023/03/17 22:23:05;;;;;;;;;;;;;;;8.85;59.55;97561.09;6214060;23;19908;-65
2023/03/17 22:25:30;;;;;;;;;;;;;;;8.82;59.11;97571.78;6214583;23;19954;-65
